Harbinger, NC (27941)

12:39 PM EDT on September 22, 2014 (GMT -0400)
The Compound | Change Station
CLOSE
Current Station
Personal Weather Station
Location: Point Harbor, NC
Elevation: 13 ft
Nearby Weather Stations

Elev 13 ft 36.09 °N, 75.79 °W | Updated 3 seconds ago

Partly Cloudy
Partly Cloudy
75.2 °F
Feels Like 77 °F
N
8.5
Wind Variable Wind from North
Gusts 9.8 mph

Today
High -- | Low -- °F
--% Chance of Precip.
Yesterday
High -- | Low -- °F
Precip. -- in
6:51 AM 7:00 PM
Waning Crescent, 2% visible
Pressure 29.99 in
Visibility 10.0 miles
Clouds Scattered Clouds 8000 ft
Heat Index 77 °F
Dew Point 44 °F
Humidity 33%
Rainfall 0.00 in
Snow Depth Not available.
UV 6 out of 12
Pollen 5.60 out of 12
Air Quality Not available.
Flu Activity Not available.
METAR KFFA 221615Z AUTO 02006KT 10SM SCT080 25/15 A2999 RMK AO2 T02490153

More Conditions Fewer Conditions

Pressure 29.99 in
Visibility 10.0 miles
Clouds Scattered Clouds 8000 ft
Heat Index 77 °F
Dew Point 44 °F
Humidity 33%
Rainfall 0.00 in
Snow Depth Not available.
UV 6 out of 12
Pollen 5.60 out of 12
Air Quality Not available.
Flu Activity Not available.
METAR KFFA 221615Z AUTO 02006KT 10SM SCT080 25/15 A2999 RMK AO2 T02490153

More Conditions Fewer Conditions

10-Day Weather Forecast

Almanac

Astronomy

Sep. 22, 2014 Rise Set
Actual Time 6:51 AM EDT 7:00 PM EDT
Civil Twilight 6:25 AM EDT 7:25 PM EDT
Nautical Twilight 5:55 AM EDT 7:55 PM EDT
Astronomical Twilight 5:25 AM EDT 8:25 PM EDT
Moon 5:19 AM EDT 6:05 PM EDT
Length of Visible Light 13h 00m
Length of Day
12h 08m
Tomorrow will be 2m 16s shorter.
Waning Crescent, 2% of the Moon is Illuminated
Today
Waning Crescent
Sep 24
New
Oct 1
First Quarter
Oct 8
Full
Oct 15
Last Quarter

Today's Extremes

State Highs State Lows

Community

WunderPhotos

Upload Photos

1,755,480 photos uploaded!

WunderBlogs® & News

Nearby

Snow Depth

Station Depth Elevation
No new snow has been reported.

Earthquake Activity

City Distance Mag. Time & Date
No recent earthquake activity has been reported nearby.
Minimum magnitude displayed is 2.5.

Coastal Water Temperatures

Place Temperature
Oregon Inlet Marina, NC 75.0 °F
Duck Pier, NC 73.9 °F
Hatteras, NC 73.9 °F
Money Point, VA 78.1 °F
Sewells Point, VA 75.0 °F
Chesapeake Bay Bridge Tunnel, VA 75.0 °F

Nearby Weather Stations